Flight Track Log - Related Links

Times and Time Zones

All times are in EDT time to prevent confusion due to time zone crossing. See the SWA3963 flight status page for this flight to view local times or setup timezone preferences in your user account.

Time Position Orientation Groundspeed Altitude Reporting Facility
EDT Latitude Longitude Course Direction KTS MPH feet Rate Location/Type
Fri 08:07:33 PM 33.9367 -118.5864 259° West 260 299 5,900  Level Los Angeles Center
Fri 08:08:35 PM 33.9678 -118.6722 294° West 287 330 9,000 1,500 Climbing Los Angeles Center
Fri 08:09:37 PM 34.0411 -118.7075 338° Northwest 295 339 9,000  Level Los Angeles Center
Fri 08:10:39 PM 34.1075 -118.6561 33° Northeast 281 323 9,000 384 Level Los Angeles Center
Fri 08:11:42 PM 34.1836 -118.6319 15° North 292 336 9,800 1,796 Climbing Los Angeles Center
Fri 08:12:56 PM 34.2653 -118.6531 348° North 303 349 13,100 3,044 Climbing Los Angeles Center
Fri 08:13:58 PM 34.3669 -118.6817 347° North 312 359 16,700 3,194 Climbing Los Angeles Center
Fri 08:15:00 PM 34.4778 -118.7103 348° North 337 388 19,700 2,081 Climbing Los Angeles Center
Fri 08:16:02 PM 34.5758 -118.7450 344° North 373 429 21,000 1,632 Climbing Los Angeles Center
Fri 08:17:05 PM 34.6792 -118.8014 336° Northwest 408 470 23,100 1,824 Climbing Los Angeles Center
Fri 08:18:07 PM 34.7864 -118.8553 338° Northwest 414 476 24,800 1,839 Climbing Los Angeles Center
Fri 08:19:09 PM 34.8983 -118.9575 323° Northwest 440 506 26,900 1,676 Climbing Los Angeles Center
Fri 08:20:23 PM 35.0003 -119.0553 322° Northwest 452 520 28,600 2,162 Climbing Los Angeles Center
Fri 08:21:25 PM 35.1183 -119.1672 322° Northwest 446 513 31,800 2,177 Climbing Los Angeles Center
Fri 08:22:27 PM 35.2131 -119.2619 321° Northwest 442 509 33,100 1,306 Climbing Los Angeles Center
Fri 08:23:29 PM 35.3122 -119.3586 322° Northwest 458 527 34,500 1,248 Climbing Los Angeles Center
Fri 08:24:32 PM 35.4078 -119.4542 321° Northwest 446 513 35,700 720 Climbing Los Angeles Center
Fri 08:25:34 PM 35.5275 -119.5714 321° Northwest 457 526 36,000 145 Climbing Los Angeles Center
Fri 08:26:36 PM 35.6264 -119.6706 321° Northwest 460 529 36,000  Level Los Angeles Center
Fri 08:27:09 PM 35.6833 -119.7281 321° Northwest 459 528 36,000  Level Oakland Center
Fri 08:28:10 PM 35.7811 -119.8264 321° Northwest 458 527 36,000  Level Oakland Center
Fri 08:29:12 PM 35.8772 -119.9228 321° Northwest 453 521 36,000  Level Oakland Center
Fri 08:30:13 PM 35.9761 -120.0214 321° Northwest 458 527 36,000  Level Oakland Center
Fri 08:31:15 PM 36.0731 -120.1194 321° Northwest 456 525 36,000  Level Oakland Center
Fri 08:32:17 PM 36.1694 -120.2178 321° Northwest 452 520 36,000  Level Oakland Center
Fri 08:33:18 PM 36.2881 -120.3381 321° Northwest 462 532 36,000 -439 Level Oakland Center
Fri 08:34:20 PM 36.3869 -120.4411 320° Northwest 466 536 35,100 -1,742 Descending Oakland Center
Fri 08:35:22 PM 36.4858 -120.5389 322° Northwest 458 527 32,400 -2,732 Descending Oakland Center
Fri 08:36:23 PM 36.5850 -120.6436 320° Northwest 468 539 29,500 -2,878 Descending Oakland Center
Fri 08:37:25 PM 36.6853 -120.7506 319° Northwest 473 544 26,500 -2,780 Descending Oakland Center
Fri 08:38:26 PM 36.7836 -120.8503 321° Northwest 461 531 23,800 -2,341 Descending Oakland Center
Fri 08:39:28 PM 36.8722 -120.9564 316° Northwest 447 514 21,700 -2,341 Descending Oakland Center
Fri 08:40:29 PM 36.9739 -121.0742 317° Northwest 419 482 19,000 -2,634 Descending Oakland Center
Fri 08:41:31 PM 37.0508 -121.1600 318° Northwest 406 467 16,300 -2,661 Descending Oakland Center
Fri 08:42:33 PM 37.1403 -121.2633 317° Northwest 404 465 13,500 -2,585 Descending Oakland Center
Fri 08:43:34 PM 37.2172 -121.3550 317° Northwest 385 443 11,000 -1,707 Descending Oakland Center
Fri 08:44:36 PM 37.2919 -121.4422 317° Northwest 366 421 10,000 -732 Descending Oakland Center
Fri 08:45:37 PM 37.3594 -121.5192 318° Northwest 302 348 9,500 -780 Descending Oakland Center
Fri 08:46:39 PM 37.4192 -121.5906 316° Northwest 295 339 8,400 -1,065 Descending Oakland Center
Fri 08:47:41 PM 37.4775 -121.6600 317° Northwest 292 336 7,300 -732 Descending Oakland Center
Fri 08:48:42 PM 37.5364 -121.7289 317° Northwest 290 334 6,900 -732 Descending Oakland Center
Fri 08:49:44 PM 37.5650 -121.8194 292° West 296 341 5,800 -1,024 Descending Oakland Center
Fri 08:50:45 PM 37.5836 -121.9097 285° West 274 315 4,800 -900 Descending Oakland Center
Fri 08:51:44 PM 37.6000 -122.0000 283° West 231 266 4,000 -1,008 Descending Northern Cal TRACON
Fri 08:52:50 PM 37.6167 -122.0833 284° West 213 245 2,700 -1,190 Descending Northern Cal TRACON
Fri 08:53:50 PM 37.6500 -122.1333 310° West 198 228 1,500 -1,000 Descending Northern Cal TRACON
Fri 08:54:50 PM 37.6833 -122.1833 310° West 141 162 700 -737 Descending Northern Cal TRACON
Fri 08:55:44 PM 37.7000 -122.2167 302° West 124 143 100 -667 Descending Northern Cal TRACON
Fri 08:57:00 PM 37.7167 -122.2167 270° West  Level FlightAware Approximate
Fri 09:04:00 PM 37.7213 -122.2207 270° West  Level Estimated

Login

Don't have an account? Register now (free) for customized features, flight alerts, and more!